Time;durP1;ratioP1;P1;durP2;ratioP2;P2;SDS_P1;SDS_P2;PMS_P1;PMS_P2;Temp;Humidity;BMP_temperature;BMP_pressure;BME280_temperature;BME280_humidity;BME280_pressure;Samples;Min_cycle;Max_cycle;Signal;HPM_P1;HPM_P2
2021/09/19 00:00:26;;;;;;;5.32;3.08;;;15.60;99.90;;;15.36;100.00;100964.38;4137588;28;20041;-75
2021/09/19 00:02:27;;;;;;;6.53;3.30;;;15.70;99.90;;;15.38;100.00;100970.34;4137690;28;20101;-75
2021/09/19 00:04:28;;;;;;;5.07;3.47;;;15.80;99.90;;;15.41;100.00;100959.34;4137536;28;20034;-75
2021/09/19 00:06:29;;;;;;;6.68;3.67;;;15.80;99.90;;;15.57;100.00;100970.84;4137127;28;20031;-75
2021/09/19 00:08:30;;;;;;;4.25;3.15;;;15.80;99.90;;;15.60;100.00;100966.00;4137434;28;20049;-75
2021/09/19 00:10:31;;;;;;;8.07;3.38;;;15.90;99.90;;;15.58;100.00;100972.50;4135410;28;20023;-75
2021/09/19 00:12:32;;;;;;;6.28;3.70;;;15.90;99.90;;;15.63;100.00;100972.78;4137463;28;20045;-75
2021/09/19 00:14:34;;;;;;;7.45;3.55;;;16.00;99.90;;;15.69;100.00;100980.03;4132146;28;20027;-75
2021/09/19 00:16:35;;;;;;;4.20;2.83;;;16.00;99.90;;;15.76;100.00;100988.94;4151704;28;20030;-75
2021/09/19 00:18:36;;;;;;;3.80;2.40;;;16.10;99.90;;;15.79;100.00;100977.94;4146552;28;20525;-75
2021/09/19 00:20:39;;;;;;;6.57;2.95;;;16.10;99.90;;;15.90;100.00;100974.78;4137341;28;20041;-75
2021/09/19 00:22:41;;;;;;;3.90;2.72;;;16.20;99.90;;;15.84;100.00;100978.19;4132467;28;20027;-75
2021/09/19 00:24:42;;;;;;;3.40;2.33;;;16.20;99.90;;;15.92;100.00;100975.41;4136250;28;20459;-75
2021/09/19 00:26:43;;;;;;;7.10;3.33;;;16.20;99.90;;;15.96;100.00;100982.88;4142096;28;20105;-75
2021/09/19 00:28:44;;;;;;;7.13;2.90;;;16.30;99.90;;;15.97;100.00;100981.03;4153345;28;20036;-75
2021/09/19 00:30:45;;;;;;;3.80;2.72;;;16.30;99.90;;;16.04;100.00;100984.59;4152254;28;20393;-75
2021/09/19 00:32:46;;;;;;;4.97;2.60;;;16.40;99.90;;;16.05;100.00;100981.75;4153247;28;20034;-75
2021/09/19 00:34:47;;;;;;;4.75;2.40;;;16.40;99.90;;;16.04;100.00;100988.06;4135852;28;20030;-75
2021/09/19 00:36:48;;;;;;;4.90;2.28;;;16.40;99.90;;;16.07;100.00;100986.88;4153357;28;20482;-75
2021/09/19 00:38:49;;;;;;;4.10;2.15;;;16.40;99.90;;;16.32;100.00;100987.38;4152068;28;20076;-75
2021/09/19 00:40:50;;;;;;;4.63;2.20;;;16.50;99.90;;;16.42;100.00;100982.59;4151683;28;20026;-75
2021/09/19 00:42:51;;;;;;;7.93;2.55;;;16.60;99.90;;;16.43;100.00;100993.06;4146477;28;20540;-75
2021/09/19 00:45:11;;;;;;;5.80;2.25;;;16.70;99.90;;;16.50;100.00;100995.78;4135657;28;20097;-75
2021/09/19 00:47:12;;;;;;;5.55;2.33;;;16.70;99.90;;;16.41;100.00;100989.75;4135655;28;20062;-75
2021/09/19 00:49:13;;;;;;;3.03;2.10;;;16.70;99.90;;;16.43;100.00;100993.06;4136955;28;20050;-75
2021/09/19 00:51:14;;;;;;;5.55;2.17;;;16.70;99.90;;;16.47;100.00;100986.34;4135700;28;20063;-75
2021/09/19 00:53:15;;;;;;;2.80;2.30;;;16.80;99.90;;;16.50;100.00;100988.63;4135700;28;20098;-75
2021/09/19 00:55:18;;;;;;;4.47;2.08;;;16.80;99.90;;;16.47;100.00;100990.84;4135310;28;20037;-75
2021/09/19 00:57:20;;;;;;;3.13;2.28;;;16.80;99.90;;;16.39;100.00;100994.47;4124061;28;20172;-75
2021/09/19 00:59:22;;;;;;;5.03;2.35;;;16.90;99.90;;;16.40;100.00;100992.59;4135554;28;20027;-75
2021/09/19 01:01:23;;;;;;;2.58;1.83;;;16.90;99.90;;;16.41;100.00;100984.44;4119413;28;20144;-75
2021/09/19 01:03:26;;;;;;;3.25;2.40;;;16.90;99.90;;;16.46;100.00;100997.16;4133553;28;20033;-75
2021/09/19 01:05:27;;;;;;;2.67;2.17;;;16.90;99.90;;;16.54;100.00;101008.59;4140432;28;20030;-75
2021/09/19 01:07:29;;;;;;;4.30;2.20;;;16.90;99.90;;;16.49;100.00;100994.97;4143405;28;20028;-75
2021/09/19 01:09:31;;;;;;;4.95;2.60;;;17.00;99.90;;;16.46;100.00;101006.00;4135257;28;20054;-75
2021/09/19 01:11:32;;;;;;;4.32;2.70;;;16.90;99.90;;;16.38;100.00;101000.78;4135339;28;20034;-75
2021/09/19 01:13:34;;;;;;;2.40;2.15;;;16.90;99.90;;;16.40;100.00;101012.06;4136590;28;20030;-75
2021/09/19 01:15:35;;;;;;;2.83;1.73;;;16.90;99.90;;;16.44;100.00;101009.84;4135458;28;20018;-75
2021/09/19 01:17:39;;;;;;;2.30;1.80;;;16.90;99.90;;;16.36;100.00;101013.47;4136519;28;20118;-75
2021/09/19 01:19:41;;;;;;;5.72;2.10;;;16.90;99.90;;;16.42;100.00;101009.22;4135167;28;20029;-75
2021/09/19 01:21:43;;;;;;;2.17;1.80;;;16.90;99.90;;;16.37;100.00;101009.78;4135297;28;20394;-75
2021/09/19 01:24:04;;;;;;;3.17;2.03;;;16.90;99.90;;;16.45;100.00;101019.50;4135166;28;20060;-75
2021/09/19 01:26:05;;;;;;;2.10;1.88;;;16.90;99.90;;;16.45;100.00;101016.84;4134715;28;20054;-75
2021/09/19 01:28:08;;;;;;;2.00;1.70;;;16.90;99.90;;;16.35;100.00;101008.31;4135288;28;20037;-75
2021/09/19 01:30:11;;;;;;;2.53;1.58;;;16.90;99.90;;;16.37;100.00;101020.44;4119222;28;20042;-75
2021/09/19 01:32:11;;;;;;;1.85;1.60;;;16.90;99.90;;;16.42;100.00;101015.38;4136246;28;20026;-75
2021/09/19 01:34:13;;;;;;;3.35;1.33;;;16.90;99.90;;;16.30;100.00;101000.06;4134873;28;20092;-75
2021/09/19 01:36:14;;;;;;;2.45;1.35;;;16.90;99.90;;;16.36;100.00;101010.81;4123493;28;20490;-75
2021/09/19 01:38:15;;;;;;;3.65;1.25;;;16.90;99.90;;;16.28;100.00;101010.06;4136285;28;20121;-75
2021/09/19 01:40:16;;;;;;;1.80;0.95;;;16.90;99.90;;;16.23;100.00;101005.31;4135947;28;20022;-75
2021/09/19 01:42:17;;;;;;;2.20;1.45;;;16.80;99.90;;;16.25;100.00;100997.94;4119827;28;20031;-75
2021/09/19 01:44:18;;;;;;;2.47;1.10;;;16.80;99.90;;;16.32;100.00;101009.53;4136285;28;20022;-75
2021/09/19 01:46:19;;;;;;;1.92;1.00;;;16.80;99.90;;;16.28;100.00;100989.59;4134887;28;20058;-75
2021/09/19 01:48:20;;;;;;;1.83;1.00;;;16.80;99.90;;;16.21;100.00;100998.53;4136164;28;20457;-75
2021/09/19 01:50:23;;;;;;;1.25;1.15;;;16.90;99.90;;;16.32;100.00;101003.38;4136199;28;20023;-75
2021/09/19 01:52:24;;;;;;;1.00;0.77;;;16.80;99.90;;;16.35;100.00;100998.50;4134966;28;20422;-75
2021/09/19 01:54:27;;;;;;;1.35;0.93;;;16.80;99.90;;;16.42;100.00;100999.41;4134699;28;20269;-75
2021/09/19 01:56:28;;;;;;;1.02;0.70;;;16.80;99.90;;;16.44;100.00;100991.22;4136045;28;20022;-75
2021/09/19 01:58:29;;;;;;;1.33;0.80;;;16.80;99.90;;;16.35;100.00;100990.50;4134837;28;20085;-75
2021/09/19 02:00:30;;;;;;;1.70;0.70;;;16.90;99.90;;;16.35;100.00;100990.50;4118755;28;20062;-75
2021/09/19 02:02:36;;;;;;;1.70;0.90;;;16.90;99.90;;;16.33;100.00;100997.88;4134815;28;20022;-76
2021/09/19 02:04:40;;;;;;;0.70;0.65;;;16.80;99.90;;;16.32;100.00;100990.06;4129295;28;20499;-75
2021/09/19 02:06:41;;;;;;;2.35;0.80;;;16.80;99.90;;;16.38;100.00;100981.31;4136562;28;20118;-75
2021/09/19 02:08:42;;;;;;;1.00;0.70;;;16.80;99.90;;;16.36;100.00;100989.50;4140546;28;20029;-75
2021/09/19 02:10:43;;;;;;;0.98;0.77;;;16.90;99.90;;;16.37;100.00;100982.31;4150881;28;20033;-76
2021/09/19 02:12:46;;;;;;;2.03;0.60;;;16.90;99.90;;;16.34;100.00;100991.50;4150999;28;20410;-75
2021/09/19 02:14:47;;;;;;;0.60;0.50;;;16.80;99.90;;;16.38;100.00;100981.31;4150801;28;20402;-75
2021/09/19 02:16:48;;;;;;;0.80;0.63;;;16.80;99.90;;;16.32;100.00;100982.91;4134521;28;20041;-75
2021/09/19 02:18:50;;;;;;;0.73;0.60;;;16.80;99.90;;;16.35;100.00;100995.00;4150988;28;20021;-76
2021/09/19 02:20:51;;;;;;;0.80;0.60;;;16.80;99.90;;;16.33;100.00;100991.72;4134741;28;20102;-75
2021/09/19 02:22:52;;;;;;;0.77;0.57;;;16.80;99.90;;;16.28;100.00;100989.59;4150674;28;20032;-76
2021/09/19 02:24:54;;;;;;;1.25;0.63;;;16.80;99.90;;;16.26;100.00;100983.66;4150653;28;20033;-76
2021/09/19 02:26:55;;;;;;;1.33;0.70;;;16.70;99.90;;;16.21;100.00;100991.38;4150904;28;20118;-75
2021/09/19 02:28:56;;;;;;;0.80;0.60;;;16.70;99.90;;;16.25;100.00;100992.63;4151978;28;20034;-75
2021/09/19 02:30:57;;;;;;;0.95;0.70;;;16.70;99.90;;;16.07;100.00;100984.22;4151868;28;20022;-75
2021/09/19 02:32:58;;;;;;;1.42;0.90;;;16.70;99.90;;;16.05;100.00;100987.06;4152215;28;20482;-75
2021/09/19 02:34:59;;;;;;;1.15;0.77;;;16.60;99.90;;;16.13;100.00;100993.31;4155442;28;20084;-75
2021/09/19 02:37:00;;;;;;;1.92;1.10;;;16.60;99.90;;;16.09;100.00;100989.38;4155411;28;20026;-75
2021/09/19 02:39:01;;;;;;;0.90;0.70;;;16.60;99.90;;;16.02;100.00;100995.44;4137521;28;20026;-75
2021/09/19 02:41:02;;;;;;;0.90;0.68;;;16.50;99.90;;;16.07;100.00;100986.06;4154961;28;20104;-75
2021/09/19 02:43:04;;;;;;;1.38;0.70;;;16.50;99.90;;;16.07;100.00;100991.41;4146787;28;20033;-75
2021/09/19 02:45:07;;;;;;;1.58;0.85;;;16.50;99.90;;;16.04;100.00;100990.75;4137893;28;20038;-75
2021/09/19 02:47:08;;;;;;;1.02;0.93;;;16.50;99.90;;;16.09;100.00;100979.56;4138682;28;20069;-75
2021/09/19 02:49:09;;;;;;;1.98;0.70;;;16.60;99.90;;;16.10;100.00;100999.00;4138856;28;20038;-75
2021/09/19 02:51:10;;;;;;;1.48;0.82;;;16.50;99.90;;;15.97;100.00;100994.34;4138896;28;20030;-75
2021/09/19 02:53:11;;;;;;;1.23;0.80;;;16.50;99.90;;;16.04;100.00;101000.56;4138761;28;20489;-75
2021/09/19 02:55:13;;;;;;;1.10;0.90;;;16.50;99.90;;;15.95;100.00;100994.50;4137256;28;20034;-75
2021/09/19 02:57:14;;;;;;;1.48;0.80;;;16.50;99.90;;;15.99;100.00;100986.97;4138799;28;20022;-75
2021/09/19 02:59:15;;;;;;;1.40;0.70;;;16.50;99.90;;;16.17;100.00;101000.72;4138753;28;20034;-75
2021/09/19 03:01:16;;;;;;;1.88;0.90;;;16.50;99.90;;;16.17;100.00;101000.72;4131319;28;20126;-75
2021/09/19 03:03:17;;;;;;;1.38;0.80;;;16.60;99.90;;;16.21;100.00;101002.03;4150619;28;20034;-75
2021/09/19 03:05:18;;;;;;;0.80;0.70;;;16.60;99.90;;;16.27;100.00;100987.97;4151512;28;20026;-75
2021/09/19 03:07:19;;;;;;;1.10;0.98;;;16.60;99.90;;;16.34;100.00;100985.34;4127801;28;20027;-75
2021/09/19 03:09:20;;;;;;;1.80;0.90;;;16.60;99.90;;;16.21;100.00;100983.38;4138334;28;20061;-75
2021/09/19 03:11:21;;;;;;;1.23;0.90;;;16.60;99.90;;;16.27;100.00;100985.31;4137207;28;20027;-75
2021/09/19 03:13:22;;;;;;;1.00;0.70;;;16.60;99.90;;;16.33;100.00;100992.53;4137273;28;20027;-75
2021/09/19 03:15:23;;;;;;;2.78;0.70;;;16.70;99.90;;;16.26;100.00;101002.28;4137309;28;20069;-75
2021/09/19 03:17:24;;;;;;;1.48;0.75;;;16.70;99.90;;;16.25;100.00;100995.28;4137278;28;20085;-75
2021/09/19 03:19:25;;;;;;;2.17;0.90;;;16.70;99.90;;;16.28;100.00;100997.59;4121147;28;20031;-75
2021/09/19 03:21:26;;;;;;;3.90;0.80;;;16.70;99.90;;;16.27;100.00;100995.94;4137083;28;20033;-75
2021/09/19 03:23:27;;;;;;;3.00;1.40;;;16.70;99.90;;;16.31;100.00;101007.84;4138525;28;20393;-75
2021/09/19 03:25:28;;;;;;;1.23;0.80;;;16.70;99.90;;;16.34;100.00;101010.16;4138033;28;20038;-75
2021/09/19 03:27:30;;;;;;;1.95;0.90;;;16.70;99.90;;;16.33;100.00;101011.19;4137130;28;20023;-75
2021/09/19 03:29:31;;;;;;;1.52;0.90;;;16.70;99.90;;;16.33;100.00;101024.50;4136785;28;20030;-75
2021/09/19 03:31:32;;;;;;;2.22;0.98;;;16.70;99.90;;;16.35;100.00;101014.47;4137120;28;20054;-75
2021/09/19 03:33:33;;;;;;;1.85;0.90;;;16.80;99.90;;;16.29;100.00;101023.19;4129992;28;20038;-75
2021/09/19 03:35:34;;;;;;;1.30;1.00;;;16.80;99.90;;;16.30;100.00;101038.19;4138082;28;20109;-75
2021/09/19 03:37:35;;;;;;;1.63;0.95;;;16.70;99.90;;;16.23;100.00;101031.09;4136820;28;20057;-75
2021/09/19 03:39:36;;;;;;;1.83;1.00;;;16.80;99.90;;;16.27;100.00;101038.53;4137905;28;20038;-75
2021/09/19 03:41:37;;;;;;;2.25;0.95;;;16.70;99.90;;;16.31;100.00;101041.63;4146745;28;20061;-75
2021/09/19 03:43:38;;;;;;;2.80;1.35;;;16.70;99.90;;;16.34;100.00;101044.75;4142212;28;20026;-75
2021/09/19 03:45:39;;;;;;;1.75;0.82;;;16.70;99.90;;;16.34;100.00;101047.41;4135504;28;20030;-75
2021/09/19 03:47:40;;;;;;;2.33;1.10;;;16.80;99.90;;;16.34;100.00;101062.56;4136601;28;20026;-75
2021/09/19 03:49:40;;;;;;;2.45;1.48;;;16.80;99.90;;;16.18;100.00;101060.94;4136807;28;20065;-75
2021/09/19 03:51:41;;;;;;;6.63;1.23;;;16.70;99.90;;;16.21;100.00;101060.56;4132029;28;20421;-75
2021/09/19 03:53:42;;;;;;;1.67;1.23;;;16.70;99.90;;;16.12;100.00;101060.84;4151088;28;20026;-75
2021/09/19 03:55:43;;;;;;;1.98;1.23;;;16.70;99.90;;;16.19;100.00;101067.09;4149422;28;20023;-75
2021/09/19 03:57:44;;;;;;;1.77;1.23;;;16.70;99.90;;;16.26;100.00;101071.50;4136713;28;20530;-75
2021/09/19 03:59:45;;;;;;;3.60;1.33;;;16.70;99.90;;;16.22;100.00;101072.06;4136591;28;20049;-75
2021/09/19 04:01:46;;;;;;;3.40;1.45;;;16.70;99.90;;;16.08;100.00;101073.69;4136483;28;20081;-75
2021/09/19 04:03:47;;;;;;;3.10;1.70;;;16.70;99.90;;;16.09;100.00;101087.84;4137758;28;20418;-75
2021/09/19 04:05:48;;;;;;;4.65;2.38;;;16.60;99.90;;;16.10;100.00;101086.84;4136599;28;20062;-75
2021/09/19 04:07:49;;;;;;;2.85;1.60;;;16.60;99.90;;;16.13;100.00;101081.94;4148259;28;20526;-75
2021/09/19 04:09:50;;;;;;;4.70;1.80;;;16.60;99.90;;;16.19;100.00;101093.72;4153516;28;20039;-75
2021/09/19 04:11:53;;;;;;;4.30;1.88;;;16.60;99.90;;;16.18;100.00;101089.41;4152674;28;20026;-75
2021/09/19 04:13:54;;;;;;;8.23;2.22;;;16.60;99.90;;;16.08;100.00;101088.84;4153847;28;20057;-75
2021/09/19 04:15:55;;;;;;;4.72;2.67;;;16.60;99.90;;;16.04;100.00;101091.03;4153693;28;20026;-75
2021/09/19 04:17:56;;;;;;;6.00;2.55;;;16.60;99.90;;;16.08;100.00;101102.13;4153554;28;20438;-75
2021/09/19 04:19:57;;;;;;;5.70;2.58;;;16.60;99.90;;;16.07;100.00;101093.31;4152538;28;20026;-75
2021/09/19 04:21:57;;;;;;;11.48;4.47;;;16.60;99.90;;;15.86;100.00;101111.88;4153672;28;20061;-76
2021/09/19 04:23:58;;;;;;;9.70;3.05;;;16.50;99.90;;;15.80;100.00;101102.75;4153523;28;20030;-76
2021/09/19 04:25:59;;;;;;;7.50;2.88;;;16.40;99.90;;;15.66;100.00;101114.19;4153300;28;20113;-76
2021/09/19 04:28:01;;;;;;;7.20;2.17;;;16.40;99.90;;;15.75;100.00;101112.28;4153561;28;20501;-76
2021/09/19 04:30:04;;;;;;;11.35;2.58;;;16.30;99.90;;;15.49;100.00;101116.19;4152347;28;20032;-75
2021/09/19 04:32:05;;;;;;;8.05;2.13;;;16.30;99.90;;;15.42;100.00;101125.81;4152343;28;20529;-75
2021/09/19 04:34:06;;;;;;;7.40;2.30;;;16.10;99.90;;;15.39;100.00;101117.38;4153258;28;20087;-75
2021/09/19 04:36:07;;;;;;;7.80;2.10;;;16.10;99.90;;;15.30;100.00;101123.75;4152236;28;20465;-75
2021/09/19 04:38:09;;;;;;;7.88;2.08;;;16.00;99.90;;;15.30;100.00;101129.06;4152251;28;20065;-75
2021/09/19 04:40:11;;;;;;;9.13;2.03;;;15.90;99.90;;;15.24;100.00;101125.28;4151933;28;20030;-75
2021/09/19 04:42:13;;;;;;;7.07;2.42;;;15.90;99.90;;;15.26;100.00;101133.91;4152842;28;20489;-75
2021/09/19 04:44:14;;;;;;;6.78;2.25;;;15.90;99.90;;;15.30;100.00;101140.53;4135872;28;20026;-75
2021/09/19 04:46:15;;;;;;;11.88;2.97;;;15.80;99.90;;;15.24;100.00;101138.59;4126527;28;20042;-75
2021/09/19 04:48:17;;;;;;;7.50;2.05;;;15.80;99.90;;;15.12;100.00;101132.03;4146127;28;20053;-75
2021/09/19 04:50:19;;;;;;;8.07;2.22;;;15.80;99.90;;;15.16;100.00;101145.78;4139309;28;20037;-75
2021/09/19 04:52:19;;;;;;;8.10;1.75;;;15.80;99.90;;;15.20;100.00;101145.25;4135792;28;20030;-75
2021/09/19 04:54:20;;;;;;;9.02;2.40;;;15.80;99.90;;;15.21;100.00;101140.75;4136699;28;20034;-75
2021/09/19 04:56:21;;;;;;;7.30;2.47;;;15.70;99.90;;;15.12;100.00;101132.03;4136589;28;20026;-75
2021/09/19 04:58:22;;;;;;;7.43;1.90;;;15.70;99.90;;;15.13;100.00;101144.31;4135527;28;20043;-75
2021/09/19 05:00:23;;;;;;;3.95;1.80;;;15.70;99.90;;;15.01;100.00;101132.44;4136842;28;20050;-75
2021/09/19 05:02:24;;;;;;;4.22;1.70;;;15.60;99.90;;;15.00;98.29;101146.69;4135881;28;20026;-75
2021/09/19 05:04:25;;;;;;;6.22;1.63;;;15.60;99.90;;;15.01;98.15;101140.41;4136697;28;20027;-75
2021/09/19 05:06:26;;;;;;;3.88;1.80;;;15.60;99.90;;;15.02;97.21;101142.06;4136759;28;20034;-75
2021/09/19 05:08:27;;;;;;;5.93;2.42;;;15.60;99.90;;;15.01;96.71;101140.41;4135504;28;20042;-75
2021/09/19 05:10:28;;;;;;;8.25;1.58;;;15.50;99.90;;;15.01;96.92;101140.41;4135394;28;20030;-75
2021/09/19 05:12:29;;;;;;;6.45;1.58;;;15.60;99.90;;;14.97;96.02;101139.09;4135543;28;20505;-75
2021/09/19 05:14:29;;;;;;;5.35;1.60;;;15.50;99.90;;;15.03;96.32;101142.88;4135417;28;20109;-75
2021/09/19 05:16:30;;;;;;;9.15;1.50;;;15.50;99.90;;;14.98;95.02;101140.75;4135360;28;20061;-75
2021/09/19 05:18:31;;;;;;;6.72;1.92;;;15.50;99.90;;;14.86;94.56;101135.00;4136566;28;20490;-75
2021/09/19 05:20:32;;;;;;;5.47;2.00;;;15.50;99.90;;;14.85;95.11;101137.81;4136385;28;20022;-75
2021/09/19 05:22:33;;;;;;;4.15;1.30;;;15.50;99.90;;;14.85;93.86;101145.78;4135442;28;20049;-75
2021/09/19 05:24:34;;;;;;;3.78;1.50;;;15.40;99.90;;;14.85;95.01;101151.09;4118595;28;20050;-75
2021/09/19 05:26:36;;;;;;;8.10;1.63;;;15.40;99.90;;;14.81;94.99;101145.28;4136370;28;20031;-75
2021/09/19 05:28:36;;;;;;;4.90;1.50;;;15.40;99.90;;;14.94;96.43;101152.72;4135234;28;20398;-75
2021/09/19 05:30:37;;;;;;;8.80;2.50;;;15.40;99.90;;;14.94;95.00;101150.06;4135125;28;20037;-75
2021/09/19 05:32:38;;;;;;;4.70;1.50;;;15.50;99.90;;;14.95;95.45;101149.91;4136144;28;20030;-75
2021/09/19 05:34:39;;;;;;;6.95;2.20;;;15.40;99.90;;;14.94;94.41;101145.56;4124366;28;20568;-75
2021/09/19 05:36:40;;;;;;;3.88;1.65;;;15.40;99.90;;;15.09;94.41;101158.94;4136279;28;20030;-75
2021/09/19 05:38:41;;;;;;;3.53;1.58;;;15.40;99.90;;;15.08;93.86;101159.13;4134897;28;20031;-75
2021/09/19 05:40:42;;;;;;;6.10;2.28;;;15.40;99.90;;;15.11;94.93;101162.28;4136975;28;20030;-75
2021/09/19 05:42:43;;;;;;;6.15;1.55;;;15.50;99.90;;;15.17;94.19;101169.50;4146752;28;20033;-75
2021/09/19 05:44:44;;;;;;;6.15;1.42;;;15.50;99.90;;;15.18;92.58;101163.22;4135175;28;20034;-75
2021/09/19 05:46:46;;;;;;;5.57;2.50;;;15.50;99.90;;;15.19;92.90;101161.38;4134727;28;20109;-75
2021/09/19 05:48:47;;;;;;;5.47;1.20;;;15.50;99.90;;;15.19;94.12;101167.53;4135970;28;20494;-75
2021/09/19 05:50:48;;;;;;;3.40;1.40;;;15.50;99.90;;;15.18;94.17;101168.53;4134967;28;20030;-75
2021/09/19 05:52:49;;;;;;;4.35;1.58;;;15.50;99.90;;;15.08;93.98;101170.59;4134871;28;20030;-75
2021/09/19 05:54:50;;;;;;;4.75;1.45;;;15.50;99.90;;;15.04;93.91;101171.94;4135788;28;20113;-75
2021/09/19 05:56:51;;;;;;;2.67;1.25;;;15.50;99.90;;;15.11;94.23;101175.56;4134731;28;20461;-75
2021/09/19 05:58:52;;;;;;;5.20;1.63;;;15.50;99.90;;;15.12;94.87;101179.84;4134845;28;20038;-75
2021/09/19 06:00:53;;;;;;;7.43;2.33;;;15.50;99.90;;;15.06;93.48;101174.41;4134821;28;20026;-75
2021/09/19 06:02:54;;;;;;;7.15;1.60;;;15.50;99.90;;;15.14;92.98;101177.03;4135917;28;20026;-75
2021/09/19 06:04:55;;;;;;;4.93;1.60;;;15.50;99.90;;;15.05;93.83;101178.06;4134575;28;20518;-75
2021/09/19 06:06:56;;;;;;;5.30;1.50;;;15.50;99.90;;;15.04;93.85;101173.75;4134648;28;20033;-75
2021/09/19 06:08:57;;;;;;;6.32;2.15;;;15.40;99.90;;;15.04;95.56;101177.25;4133999;28;20441;-75
2021/09/19 06:10:58;;;;;;;6.18;2.15;;;15.40;99.90;;;15.05;93.19;101173.59;4135538;28;20105;-75
2021/09/19 06:12:58;;;;;;;4.85;1.45;;;15.40;99.90;;;15.08;93.30;101178.56;4134534;28;20047;-75
2021/09/19 06:14:59;;;;;;;9.27;2.47;;;15.40;99.90;;;14.99;94.34;101187.56;4135769;28;20038;-75
2021/09/19 06:17:00;;;;;;;6.57;1.65;;;15.40;99.90;;;15.05;93.86;101194.84;4134185;28;20109;-75
2021/09/19 06:19:03;;;;;;;6.28;1.80;;;15.50;99.90;;;15.12;93.86;101202.94;4135645;28;20037;-75
2021/09/19 06:21:04;;;;;;;5.35;1.60;;;15.50;99.90;;;15.10;92.97;101200.47;4134413;28;20379;-75
2021/09/19 06:23:05;;;;;;;3.28;1.20;;;15.50;99.90;;;15.09;94.05;101209.44;4121498;28;20569;-75
2021/09/19 06:25:07;;;;;;;4.85;1.35;;;15.50;99.90;;;15.23;92.33;101214.00;4140592;28;20022;-75
2021/09/19 06:27:08;;;;;;;5.43;1.63;;;15.50;99.90;;;15.19;92.35;101209.22;4167054;28;20029;-75
2021/09/19 06:29:09;;;;;;;12.07;2.38;;;15.50;99.90;;;15.10;92.00;101219.06;4137793;28;20180;-75
2021/09/19 06:31:10;;;;;;;3.70;1.63;;;15.50;99.90;;;15.08;93.13;101215.75;4134401;28;20125;-75
2021/09/19 06:33:11;;;;;;;6.55;1.45;;;15.50;99.90;;;15.16;93.33;101214.88;4135455;28;20093;-75
2021/09/19 06:35:12;;;;;;;6.00;1.90;;;15.50;99.90;;;15.28;94.08;101235.59;4135349;28;20521;-76
2021/09/19 06:37:13;;;;;;;4.63;1.58;;;15.60;99.90;;;15.29;90.87;101237.22;4150480;28;20030;-75
2021/09/19 06:39:14;;;;;;;4.95;1.45;;;15.60;99.90;;;15.19;91.07;101243.75;4134841;28;20130;-75
2021/09/19 06:41:15;;;;;;;5.05;1.65;;;15.70;99.90;;;15.21;91.11;101257.69;4151339;28;20104;-75
2021/09/19 06:43:16;;;;;;;4.97;1.52;;;15.60;99.90;;;15.25;89.88;101254.53;4142966;28;20038;-75
2021/09/19 06:45:18;;;;;;;6.78;2.03;;;15.70;99.90;;;15.30;89.78;101259.31;4135952;28;20050;-75
2021/09/19 06:47:19;;;;;;;4.15;1.33;;;15.70;99.90;;;15.23;90.40;101259.19;4136096;28;20132;-75
2021/09/19 06:49:20;;;;;;;5.50;2.13;;;15.70;99.90;;;15.16;92.36;101258.22;4124378;28;20105;-75
2021/09/19 06:51:22;;;;;;;5.97;2.30;;;15.70;99.90;;;15.28;90.28;101262.16;4136364;28;20033;-75
2021/09/19 06:53:23;;;;;;;5.75;1.30;;;15.70;99.90;;;15.39;89.37;101263.59;4136367;28;20022;-75
2021/09/19 06:55:24;;;;;;;4.00;1.40;;;15.80;99.90;;;15.46;90.44;101270.72;4135183;28;20418;-75
2021/09/19 06:57:25;;;;;;;7.43;1.95;;;15.80;99.90;;;15.46;88.93;101273.38;4135421;28;20098;-75
2021/09/19 06:59:26;;;;;;;5.18;1.38;;;15.90;99.90;;;15.58;88.29;101283.63;4119476;28;20056;-75
2021/09/19 07:01:27;;;;;;;5.50;1.20;;;15.90;99.90;;;15.58;88.47;101276.50;4118984;28;20026;-75
2021/09/19 07:03:28;;;;;;;4.93;1.85;;;15.90;99.90;;;15.56;89.29;101277.66;4136083;28;20082;-75
2021/09/19 07:05:29;;;;;;;5.57;1.42;;;15.90;99.90;;;15.65;88.87;101276.63;4133812;28;20161;-75
2021/09/19 07:07:30;;;;;;;5.90;1.60;;;16.00;99.90;;;15.73;88.49;101274.72;4134070;28;20030;-75
2021/09/19 07:09:31;;;;;;;3.80;1.20;;;16.10;99.90;;;15.71;87.31;101283.91;4134008;28;20046;-75
2021/09/19 07:11:32;;;;;;;5.82;1.40;;;16.10;99.90;;;15.73;87.09;101289.84;4134148;28;20572;-75
2021/09/19 07:13:33;;;;;;;3.08;1.55;;;16.10;99.90;;;15.75;87.45;101287.84;4118059;28;20065;-75
2021/09/19 07:15:34;;;;;;;4.32;1.63;;;16.20;99.90;;;15.69;87.30;101291.19;4135829;28;20536;-75
2021/09/19 07:17:35;;;;;;;4.15;1.08;;;16.20;99.90;;;15.74;88.25;101300.31;4136310;28;20035;-75
2021/09/19 07:19:36;;;;;;;3.80;1.15;;;16.20;99.90;;;15.73;87.20;101298.66;4136023;28;20038;-75
2021/09/19 07:21:38;;;;;;;9.52;1.98;;;16.30;99.90;;;15.66;87.12;101295.03;4139218;28;20064;-75
2021/09/19 07:23:39;;;;;;;3.15;1.08;;;16.30;99.90;;;15.70;87.24;101298.19;4137978;28;20495;-75
2021/09/19 07:25:41;;;;;;;4.07;1.73;;;16.30;99.90;;;15.84;88.15;101297.41;4137763;28;20600;-75
2021/09/19 07:27:43;;;;;;;4.85;1.58;;;16.30;99.90;;;15.81;88.98;101303.94;4139202;28;20109;-75
2021/09/19 07:29:44;;;;;;;4.43;1.40;;;16.40;99.90;;;15.85;86.78;101315.06;4139337;28;20030;-75
2021/09/19 07:31:50;;;;;;;4.03;1.48;;;16.40;99.90;;;15.87;85.58;101311.22;4137052;28;20018;-76
2021/09/19 07:33:51;;;;;;;4.97;1.20;;;16.40;99.90;;;15.90;85.83;101324.16;4137033;28;20026;-75
2021/09/19 07:35:52;;;;;;;2.50;1.20;;;16.50;99.90;;;15.76;86.37;101319.59;4138154;28;20034;-75
2021/09/19 07:37:54;;;;;;;5.60;1.38;;;16.40;99.90;;;15.83;86.46;101327.72;4136653;28;20030;-74
2021/09/19 07:39:55;;;;;;;2.08;0.90;;;16.50;99.90;;;15.82;86.83;101326.88;4137727;28;20375;-75
2021/09/19 07:41:56;;;;;;;2.25;0.95;;;16.50;99.90;;;15.75;86.62;101330.41;4147808;28;20036;-75
2021/09/19 07:43:58;;;;;;;3.70;1.23;;;16.50;99.90;;;15.67;87.18;101333.13;4137854;28;20077;-75
2021/09/19 07:46:00;;;;;;;3.38;1.50;;;16.40;99.90;;;15.69;87.51;101329.28;4135827;28;20039;-76
2021/09/19 07:48:07;;;;;;;4.80;1.15;;;16.40;99.90;;;15.64;87.50;101333.47;4128313;28;20034;-75
2021/09/19 07:50:10;;;;;;;6.10;1.60;;;16.40;99.90;;;15.65;87.79;101322.63;4137667;28;20026;-75
2021/09/19 07:52:15;;;;;;;2.30;1.23;;;16.40;99.90;;;15.72;88.29;101317.44;4137432;28;20049;-75
2021/09/19 07:54:18;;;;;;;5.57;1.35;;;16.40;99.90;;;15.74;87.63;101326.09;4137386;28;20125;-76
2021/09/19 07:56:22;;;;;;;4.05;1.15;;;16.40;99.90;;;15.64;87.28;101328.97;4136413;28;20569;-76
2021/09/19 07:58:25;;;;;;;3.15;0.88;;;16.40;99.90;;;15.68;88.16;101326.81;4137420;28;20042;-76
2021/09/19 08:00:26;;;;;;;2.55;0.90;;;16.30;99.90;;;15.61;87.33;101334.66;4137679;28;20034;-76
2021/09/19 08:02:27;;;;;;;2.63;1.10;;;16.30;99.90;;;15.56;88.18;101336.19;4137478;28;20034;-76
2021/09/19 08:04:28;;;;;;;3.53;0.90;;;16.20;99.90;;;15.42;88.75;101332.38;4136154;28;20516;-76
2021/09/19 08:06:29;;;;;;;5.63;1.27;;;16.20;99.90;;;15.49;89.06;101336.88;4137364;28;20033;-76
2021/09/19 08:08:29;;;;;;;5.15;1.30;;;16.20;99.90;;;15.49;88.90;101344.84;4137378;28;20410;-76
2021/09/19 08:10:30;;;;;;;4.18;1.45;;;16.10;99.90;;;15.60;88.93;101353.41;4137149;28;20034;-76
2021/09/19 08:12:31;;;;;;;5.07;2.20;;;16.10;99.90;;;15.54;89.25;101351.44;4136181;28;20034;-75
2021/09/19 08:14:33;;;;;;;3.80;1.20;;;16.10;99.90;;;15.49;88.55;101358.13;4136120;28;20088;-76
2021/09/19 08:16:37;;;;;;;4.05;1.10;;;16.10;99.90;;;15.58;88.73;101358.09;4135835;28;20042;-75
2021/09/19 08:18:38;;;;;;;3.63;1.13;;;16.10;99.90;;;15.53;88.90;101352.47;4136070;28;20026;-76
2021/09/19 08:20:39;;;;;;;5.18;1.30;;;16.20;99.90;;;15.57;89.20;101346.63;4136111;28;20058;-76